Time;durP1;ratioP1;P1;durP2;ratioP2;P2;SDS_P1;SDS_P2;PMS_P1;PMS_P2;Temp;Humidity;BMP_temperature;BMP_pressure;BME280_temperature;BME280_humidity;BME280_pressure;Samples;Min_cycle;Max_cycle;Signal;HPM_P1;HPM_P2
2021/12/31 00:00:27;;;;;;;0.22;0.22;;;5.00;99.90;;;;;;5086306;28;20027;-77
2021/12/31 00:02:53;;;;;;;6.22;0.70;;;5.00;99.90;;;;;;5068218;28;20040;-76
2021/12/31 00:05:19;;;;;;;5.28;0.47;;;5.00;99.90;;;;;;5068486;28;20055;-76
2021/12/31 00:07:45;;;;;;;0.57;0.52;;;5.10;99.90;;;;;;5086000;28;20536;-76
2021/12/31 00:10:11;;;;;;;0.80;0.40;;;5.40;99.90;;;;;;5069616;28;20075;-77
2021/12/31 00:12:40;;;;;;;0.65;0.50;;;5.20;99.90;;;;;;5067382;28;20024;-75
2021/12/31 00:15:08;;;;;;;0.63;0.43;;;5.10;99.90;;;;;;5086439;28;20100;-76
2021/12/31 00:17:33;;;;;;;1.75;0.50;;;4.90;99.90;;;;;;5068439;28;20055;-76
2021/12/31 00:20:03;;;;;;;0.35;0.30;;;4.80;99.90;;;;;;5068572;28;20055;-76
2021/12/31 00:24:55;;;;;;;0.63;0.55;;;4.70;99.90;;;;;;5086360;28;20114;-76
2021/12/31 00:27:21;;;;;;;1.77;0.90;;;4.70;99.90;;;;;;5085024;28;20618;-77
2021/12/31 00:29:47;;;;;;;0.20;0.20;;;4.80;99.90;;;;;;5083874;28;20293;-76
2021/12/31 00:32:13;;;;;;;1.17;0.30;;;4.80;99.90;;;;;;5085773;28;20024;-76
2021/12/31 00:34:39;;;;;;;0.45;0.32;;;4.70;99.90;;;;;;5103245;28;20027;-77
2021/12/31 00:37:04;;;;;;;0.60;0.35;;;4.60;99.90;;;;;;5087853;28;20027;-76
2021/12/31 00:39:30;;;;;;;0.30;0.30;;;4.50;99.90;;;;;;5106538;28;20039;-77
2021/12/31 00:41:56;;;;;;;0.52;0.40;;;4.40;99.90;;;;;;5104703;28;20091;-77
2021/12/31 00:44:21;;;;;;;0.50;0.50;;;4.40;99.90;;;;;;5086522;28;20027;-76
2021/12/31 00:46:47;;;;;;;0.73;0.63;;;4.30;99.90;;;;;;5087882;28;20019;-76
2021/12/31 00:49:14;;;;;;;0.60;0.50;;;4.40;99.90;;;;;;5106480;28;20491;-76
2021/12/31 00:51:40;;;;;;;0.50;0.50;;;4.30;99.90;;;;;;5086412;28;20028;-76
2021/12/31 00:54:06;;;;;;;1.75;0.68;;;4.40;99.90;;;;;;5087156;28;20028;-77
2021/12/31 00:56:32;;;;;;;3.45;0.60;;;4.50;99.90;;;;;;5086688;28;20396;-77
2021/12/31 00:58:57;;;;;;;3.92;0.50;;;4.40;99.90;;;;;;5105799;28;20041;-77
2021/12/31 01:01:25;;;;;;;5.47;0.32;;;4.40;99.90;;;;;;5087870;28;20549;-76
2021/12/31 01:03:51;;;;;;;5.20;0.40;;;4.30;99.90;;;;;;5093035;28;20031;-76
2021/12/31 01:06:17;;;;;;;0.80;0.80;;;4.30;99.90;;;;;;5069533;28;20028;-76
2021/12/31 01:08:43;;;;;;;0.40;0.40;;;4.40;99.90;;;;;;5070508;28;20016;-76
2021/12/31 01:11:09;;;;;;;0.57;0.40;;;4.30;99.90;;;;;;5070229;28;20082;-76
2021/12/31 01:13:48;;;;;;;0.77;0.77;;;4.30;99.90;;;;;;5070603;28;20024;-76
2021/12/31 01:16:15;;;;;;;1.23;1.13;;;4.20;99.90;;;;;;5070590;28;20028;-76
2021/12/31 01:21:21;;;;;;;1.10;0.63;;;4.10;99.90;;;;;;5088996;28;20453;-76
2021/12/31 01:23:48;;;;;;;0.50;0.50;;;4.20;99.90;;;;;;5091600;28;20051;-76
2021/12/31 01:26:14;;;;;;;0.95;0.55;;;4.30;99.90;;;;;;5074616;28;20090;-76
2021/12/31 01:28:40;;;;;;;1.08;0.75;;;4.20;99.90;;;;;;5092737;28;20056;-76
2021/12/31 01:31:06;;;;;;;0.57;0.43;;;4.10;99.90;;;;;;5074527;28;20020;-76
2021/12/31 01:33:32;;;;;;;5.45;0.60;;;4.10;99.90;;;;;;5092851;28;20085;-76
2021/12/31 01:35:58;;;;;;;4.55;0.60;;;3.90;99.90;;;;;;5093333;28;20028;-76
2021/12/31 01:38:23;;;;;;;1.95;1.10;;;4.10;99.90;;;;;;5074898;28;20539;-76
2021/12/31 01:40:50;;;;;;;3.40;1.10;;;4.20;99.90;;;;;;5075037;28;20039;-75
2021/12/31 01:43:17;;;;;;;0.60;0.60;;;4.40;99.90;;;;;;5091819;28;20123;-76
2021/12/31 01:45:46;;;;;;;0.32;0.32;;;4.30;99.90;;;;;;5074614;28;20028;-76
2021/12/31 01:48:24;;;;;;;0.73;0.45;;;4.20;99.90;;;;;;5093083;28;20102;-76
2021/12/31 01:50:51;;;;;;;0.40;0.40;;;4.10;99.90;;;;;;5074330;28;20035;-76
2021/12/31 01:53:17;;;;;;;0.82;0.63;;;3.90;99.90;;;;;;5074659;28;20031;-76
2021/12/31 01:55:44;;;;;;;1.55;0.85;;;4.00;99.90;;;;;;5074454;28;20020;-76
2021/12/31 01:58:11;;;;;;;1.35;0.40;;;4.00;99.90;;;;;;5074390;28;20567;-76
2021/12/31 02:00:38;;;;;;;0.95;0.70;;;4.00;99.90;;;;;;5074177;28;20119;-76
2021/12/31 02:03:05;;;;;;;0.98;0.40;;;4.00;99.90;;;;;;5074570;28;20396;-76
2021/12/31 02:05:30;;;;;;;0.60;0.47;;;3.90;99.90;;;;;;5074523;28;20472;-76
2021/12/31 02:08:00;;;;;;;2.30;0.50;;;3.80;99.90;;;;;;5074297;28;20035;-76
2021/12/31 02:10:26;;;;;;;7.65;0.77;;;3.80;99.90;;;;;;5095959;28;20032;-76
2021/12/31 02:12:56;;;;;;;4.57;0.70;;;3.80;99.90;;;;;;5079411;28;20028;-76
2021/12/31 02:15:22;;;;;;;9.00;0.98;;;3.90;99.90;;;;;;5079538;28;20028;-76
2021/12/31 02:17:48;;;;;;;0.50;0.50;;;3.90;99.90;;;;;;5092853;28;20107;-76
2021/12/31 02:20:15;;;;;;;2.28;0.60;;;3.90;99.90;;;;;;5074285;28;20024;-76
2021/12/31 02:22:53;;;;;;;3.42;0.80;;;3.80;99.90;;;;;;5074088;28;20063;-76
2021/12/31 02:25:22;;;;;;;3.80;1.48;;;3.70;99.90;;;;;;5074277;28;20066;-75
2021/12/31 02:27:47;;;;;;;1.20;0.80;;;3.80;99.90;;;;;;5074115;28;20020;-75
2021/12/31 02:30:14;;;;;;;1.25;0.90;;;4.00;99.90;;;;;;5092088;28;20402;-76
2021/12/31 02:32:39;;;;;;;1.40;0.98;;;3.90;99.90;;;;;;5091721;28;20046;-76
2021/12/31 02:35:07;;;;;;;0.85;0.50;;;3.80;99.90;;;;;;5072579;28;20024;-76
2021/12/31 02:37:33;;;;;;;0.40;0.40;;;3.70;99.90;;;;;;5091692;28;20064;-76
2021/12/31 02:40:03;;;;;;;1.15;0.55;;;3.60;99.90;;;;;;5092554;28;20480;-76
2021/12/31 02:42:29;;;;;;;11.20;1.38;;;3.60;99.90;;;;;;5094655;28;20132;-76
2021/12/31 02:44:56;;;;;;;6.22;1.58;;;3.60;99.90;;;;;;5097074;28;20055;-76
2021/12/31 02:47:21;;;;;;;6.00;0.88;;;3.60;99.90;;;;;;5095664;28;20023;-76
2021/12/31 02:49:48;;;;;;;8.23;1.13;;;3.80;99.90;;;;;;5095469;28;20024;-76
2021/12/31 02:52:16;;;;;;;5.55;1.42;;;3.90;99.90;;;;;;5095639;28;20389;-76
2021/12/31 02:54:45;;;;;;;7.78;1.80;;;4.00;99.90;;;;;;5094459;28;20023;-76
2021/12/31 02:57:12;;;;;;;9.90;1.17;;;4.10;99.90;;;;;;5078964;28;20031;-76
2021/12/31 02:59:38;;;;;;;3.13;1.63;;;4.20;99.90;;;;;;5076772;28;20020;-76
2021/12/31 03:02:06;;;;;;;2.38;1.20;;;4.10;99.90;;;;;;5073565;28;20032;-76
2021/12/31 03:04:35;;;;;;;4.72;0.75;;;4.00;99.90;;;;;;5092350;28;20112;-76
2021/12/31 03:07:05;;;;;;;0.65;0.65;;;3.80;99.90;;;;;;5075284;28;20099;-76
2021/12/31 03:09:33;;;;;;;4.53;1.17;;;3.60;99.90;;;;;;5081100;28;20040;-77
2021/12/31 03:11:59;;;;;;;2.40;0.80;;;3.60;99.90;;;;;;5110269;28;20418;-76
2021/12/31 03:14:26;;;;;;;4.55;1.63;;;3.60;99.90;;;;;;5089270;28;20040;-76
2021/12/31 03:16:52;;;;;;;2.03;1.20;;;4.30;99.90;;;;;;5094380;28;20055;-76
2021/12/31 03:19:20;;;;;;;2.13;1.40;;;3.60;99.90;;;;;;5093387;28;20023;-76
2021/12/31 03:21:45;;;;;;;4.00;1.50;;;3.60;99.90;;;;;;5111267;28;20476;-76
2021/12/31 03:24:11;;;;;;;7.13;1.42;;;4.10;99.90;;;;;;5090672;28;20027;-76
2021/12/31 03:26:37;;;;;;;8.63;2.28;;;4.40;99.90;;;;;;5092115;28;20027;-75
2021/12/31 03:29:03;;;;;;;8.82;1.50;;;4.30;99.90;;;;;;5088507;28;20019;-77
2021/12/31 03:31:28;;;;;;;5.63;1.45;;;4.20;99.90;;;;;;5090686;28;20026;-76
2021/12/31 03:33:54;;;;;;;1.73;1.02;;;4.10;99.90;;;;;;5088274;28;20024;-75
2021/12/31 03:36:20;;;;;;;5.60;1.00;;;3.90;99.90;;;;;;5087611;28;20035;-76
2021/12/31 03:38:46;;;;;;;2.45;0.93;;;3.70;99.90;;;;;;5088263;28;20039;-76
2021/12/31 03:41:11;;;;;;;2.03;1.33;;;3.70;99.90;;;;;;5089693;28;20027;-75
2021/12/31 03:43:37;;;;;;;2.65;1.17;;;3.80;99.90;;;;;;5111665;28;20054;-76
2021/12/31 03:46:03;;;;;;;0.90;0.90;;;3.80;99.90;;;;;;5108684;28;20492;-76
2021/12/31 03:48:29;;;;;;;1.52;0.90;;;3.70;99.90;;;;;;5106270;28;20020;-76
2021/12/31 03:50:55;;;;;;;0.60;0.47;;;3.50;99.90;;;;;;5088353;28;20155;-76
2021/12/31 03:53:21;;;;;;;0.85;0.57;;;3.40;99.90;;;;;;5110772;28;20020;-76
2021/12/31 03:55:47;;;;;;;1.80;0.85;;;3.30;99.90;;;;;;5111258;28;20019;-76
2021/12/31 03:58:13;;;;;;;1.23;1.02;;;3.30;99.90;;;;;;5092970;28;20020;-76
2021/12/31 04:00:39;;;;;;;1.10;0.93;;;3.20;99.90;;;;;;5112885;28;20027;-77
2021/12/31 04:03:10;;;;;;;3.70;0.90;;;3.10;99.90;;;;;;5111756;28;20035;-76
2021/12/31 04:05:38;;;;;;;1.50;0.73;;;3.10;99.90;;;;;;5110588;28;20023;-76
2021/12/31 04:08:05;;;;;;;2.58;1.08;;;3.10;99.90;;;;;;5090845;28;20023;-76
2021/12/31 04:10:30;;;;;;;5.28;1.13;;;3.10;99.90;;;;;;5091903;28;20016;-76
2021/12/31 04:12:56;;;;;;;3.88;1.40;;;3.20;99.90;;;;;;5110072;28;20031;-76
2021/12/31 04:15:22;;;;;;;9.13;1.60;;;3.40;99.90;;;;;;5091368;28;20065;-76
2021/12/31 04:17:48;;;;;;;5.22;0.98;;;3.40;99.90;;;;;;5089828;28;20302;-76
2021/12/31 04:23:01;;;;;;;17.73;1.00;;;3.50;99.90;;;;;;5108974;28;20047;-77
2021/12/31 04:25:27;;;;;;;0.80;0.80;;;3.60;99.90;;;;;;5092500;28;20019;-76
2021/12/31 04:27:52;;;;;;;2.58;1.15;;;3.60;99.90;;;;;;5108064;28;20012;-76
2021/12/31 04:30:18;;;;;;;3.92;0.82;;;3.60;99.90;;;;;;5090162;28;20084;-77
2021/12/31 04:32:44;;;;;;;0.63;0.63;;;3.50;99.90;;;;;;5092201;28;20023;-75
2021/12/31 04:35:11;;;;;;;4.32;0.90;;;3.50;99.90;;;;;;5091583;28;20031;-77
2021/12/31 04:37:42;;;;;;;1.88;0.80;;;3.60;99.90;;;;;;5093914;28;20194;-76
2021/12/31 04:40:11;;;;;;;4.05;0.75;;;3.80;99.90;;;;;;5089293;28;20031;-76
2021/12/31 04:42:40;;;;;;;2.60;0.90;;;3.80;99.90;;;;;;5091800;28;20039;-76
2021/12/31 04:45:08;;;;;;;4.57;1.08;;;3.80;99.90;;;;;;5091099;28;20031;-76
2021/12/31 04:47:34;;;;;;;1.42;0.80;;;3.80;99.90;;;;;;5110419;28;20039;-77
2021/12/31 04:49:59;;;;;;;4.82;1.02;;;3.70;99.90;;;;;;5111353;28;20024;-76
2021/12/31 04:52:25;;;;;;;0.50;0.50;;;3.70;99.90;;;;;;5110465;28;20034;-77
2021/12/31 04:54:51;;;;;;;0.70;0.60;;;3.70;99.90;;;;;;5110260;28;20088;-76
2021/12/31 04:57:16;;;;;;;0.57;0.57;;;3.60;99.90;;;;;;5110243;28;20023;-76
2021/12/31 04:59:42;;;;;;;0.93;0.77;;;3.60;99.90;;;;;;5096190;28;20076;-76
2021/12/31 05:02:08;;;;;;;1.98;0.52;;;3.50;99.90;;;;;;5097182;28;20046;-76
2021/12/31 05:04:33;;;;;;;14.85;1.17;;;3.50;99.90;;;;;;5096250;28;20019;-76
2021/12/31 05:06:59;;;;;;;1.75;0.65;;;3.50;99.90;;;;;;5098986;28;20327;-77
2021/12/31 05:09:25;;;;;;;6.57;0.70;;;3.50;99.90;;;;;;5114868;28;20027;-75
2021/12/31 05:11:50;;;;;;;18.95;0.88;;;3.40;99.90;;;;;;5117240;28;20024;-76
2021/12/31 05:14:17;;;;;;;14.43;1.20;;;3.40;99.90;;;;;;5100512;28;20083;-77
2021/12/31 05:16:42;;;;;;;21.02;1.20;;;3.50;99.90;;;;;;5101272;28;20023;-76
2021/12/31 05:19:08;;;;;;;1.23;0.50;;;3.60;99.90;;;;;;5100195;28;20034;-76
2021/12/31 05:21:34;;;;;;;8.20;1.00;;;3.50;99.90;;;;;;5118368;28;20298;-77
2021/12/31 05:24:00;;;;;;;1.58;0.85;;;3.50;99.90;;;;;;5115546;28;20526;-75
2021/12/31 05:26:25;;;;;;;4.95;1.00;;;3.50;99.90;;;;;;5120189;28;20023;-77
2021/12/31 05:28:51;;;;;;;9.20;1.10;;;3.50;99.90;;;;;;5117032;28;20190;-76
2021/12/31 05:31:17;;;;;;;16.05;1.30;;;3.40;99.90;;;;;;5099823;28;20032;-75
2021/12/31 05:33:42;;;;;;;9.35;0.90;;;3.40;99.90;;;;;;5118076;28;20024;-75
2021/12/31 05:36:08;;;;;;;2.05;0.50;;;3.50;99.90;;;;;;5117156;28;20081;-76
2021/12/31 05:38:34;;;;;;;0.77;0.65;;;3.30;99.90;;;;;;5096738;28;20057;-76
2021/12/31 05:41:00;;;;;;;0.77;0.73;;;3.20;99.90;;;;;;5098597;28;20471;-76
2021/12/31 05:43:25;;;;;;;0.93;0.73;;;3.20;99.90;;;;;;5099304;28;20434;-76
2021/12/31 05:45:51;;;;;;;0.90;0.60;;;3.20;99.90;;;;;;5100218;28;20027;-76
2021/12/31 05:48:17;;;;;;;0.98;0.60;;;3.10;99.90;;;;;;5117963;28;20032;-76
2021/12/31 05:50:42;;;;;;;2.25;0.55;;;3.10;99.90;;;;;;5118437;28;20019;-76
2021/12/31 05:53:08;;;;;;;0.63;0.60;;;3.00;99.90;;;;;;5098229;28;20180;-76
2021/12/31 05:55:34;;;;;;;6.00;0.80;;;2.90;99.90;;;;;;5099470;28;20114;-76
2021/12/31 05:58:01;;;;;;;8.95;1.20;;;2.80;99.90;;;;;;5117391;28;20031;-76
2021/12/31 06:00:28;;;;;;;0.88;0.75;;;2.90;99.90;;;;;;5119050;28;20387;-77
2021/12/31 06:02:53;;;;;;;2.17;0.65;;;3.00;99.90;;;;;;5100551;28;20567;-76
2021/12/31 06:05:19;;;;;;;1.10;0.60;;;2.90;99.90;;;;;;5099949;28;20066;-76
2021/12/31 06:07:45;;;;;;;0.80;0.73;;;3.00;99.90;;;;;;5115852;28;20024;-76
2021/12/31 06:10:11;;;;;;;1.02;0.77;;;2.90;99.90;;;;;;5096406;28;20031;-76
2021/12/31 06:12:37;;;;;;;0.50;0.50;;;2.90;99.90;;;;;;5099150;28;20031;-75
2021/12/31 06:15:08;;;;;;;0.47;0.47;;;2.60;99.90;;;;;;5099933;28;20111;-76
2021/12/31 06:17:34;;;;;;;1.08;0.40;;;2.50;99.90;;;;;;5100461;28;20460;-76
2021/12/31 06:20:00;;;;;;;5.30;1.10;;;2.40;99.90;;;;;;5118388;28;20038;-76
2021/12/31 06:22:26;;;;;;;4.97;0.80;;;2.50;99.90;;;;;;5118239;28;20036;-76
2021/12/31 06:24:52;;;;;;;17.85;1.08;;;2.90;99.90;;;;;;5097018;28;20506;-75
2021/12/31 06:27:18;;;;;;;12.00;0.75;;;3.00;99.90;;;;;;5118770;28;20063;-76
2021/12/31 06:29:44;;;;;;;0.77;0.38;;;2.90;99.90;;;;;;5119425;28;20027;-76
2021/12/31 06:32:10;;;;;;;1.85;0.50;;;2.80;99.90;;;;;;5101797;28;20410;-76
2021/12/31 06:34:36;;;;;;;1.00;0.90;;;2.70;99.90;;;;;;5099223;28;20030;-77
2021/12/31 06:37:01;;;;;;;8.88;0.63;;;2.80;99.90;;;;;;5101123;28;20543;-76
2021/12/31 06:39:28;;;;;;;0.63;0.52;;;2.80;99.90;;;;;;5118940;28;20071;-76
2021/12/31 06:41:54;;;;;;;1.15;0.57;;;2.70;99.90;;;;;;5100086;28;20103;-76
2021/12/31 06:44:19;;;;;;;1.90;0.68;;;2.60;99.90;;;;;;5100217;28;20063;-74
2021/12/31 06:46:45;;;;;;;0.40;0.40;;;2.40;99.90;;;;;;5100743;28;20098;-76
2021/12/31 06:49:11;;;;;;;0.70;0.57;;;2.40;99.90;;;;;;5096079;28;20024;-76
2021/12/31 06:51:37;;;;;;;6.13;0.60;;;2.30;99.90;;;;;;5095423;28;20034;-76
2021/12/31 06:54:03;;;;;;;1.75;0.40;;;2.20;99.90;;;;;;5099904;28;20035;-76
2021/12/31 06:56:28;;;;;;;7.32;0.80;;;2.30;99.90;;;;;;5095295;28;20426;-75
2021/12/31 06:58:54;;;;;;;5.43;0.50;;;2.60;99.90;;;;;;5115045;28;20445;-76
2021/12/31 07:01:21;;;;;;;0.70;0.40;;;2.60;99.90;;;;;;5119263;28;20491;-76
2021/12/31 07:03:46;;;;;;;3.97;0.68;;;2.60;99.90;;;;;;5111507;28;20015;-77
2021/12/31 07:06:12;;;;;;;2.15;0.30;;;2.50;99.90;;;;;;5092988;28;20045;-76
2021/12/31 07:08:38;;;;;;;4.47;0.70;;;2.40;99.90;;;;;;5110749;28;20068;-76
2021/12/31 07:11:04;;;;;;;1.65;0.50;;;2.40;99.90;;;;;;5092962;28;20030;-76
2021/12/31 07:13:30;;;;;;;2.72;0.47;;;2.30;99.90;;;;;;5111387;28;20028;-76
2021/12/31 07:15:56;;;;;;;1.05;0.32;;;2.30;99.90;;;;;;5092947;28;20026;-77
2021/12/31 07:18:23;;;;;;;0.65;0.40;;;2.30;99.90;;;;;;5110666;28;20027;-77
2021/12/31 07:20:49;;;;;;;0.90;0.40;;;2.30;99.90;;;;;;5092528;28;20016;-76
2021/12/31 07:23:18;;;;;;;0.73;0.73;;;2.50;99.90;;;;;;5111269;28;20080;-76
2021/12/31 07:25:44;;;;;;;0.40;0.40;;;2.40;99.90;;;;;;5117366;28;20329;-76
2021/12/31 07:28:11;;;;;;;0.50;0.47;;;2.50;99.90;;;;;;5099614;28;20043;-76
2021/12/31 07:30:38;;;;;;;0.70;0.70;;;2.50;99.90;;;;;;5100705;28;20038;-76
2021/12/31 07:33:04;;;;;;;4.43;0.63;;;2.50;99.90;;;;;;5115089;28;20020;-76
2021/12/31 07:35:31;;;;;;;0.40;0.40;;;2.50;99.90;;;;;;5096948;28;20165;-76
2021/12/31 07:37:58;;;;;;;0.40;0.40;;;2.50;99.90;;;;;;5091887;28;20048;-76
2021/12/31 07:40:37;;;;;;;9.15;0.50;;;2.40;99.90;;;;;;5099070;28;20209;-76
2021/12/31 07:43:04;;;;;;;1.85;1.00;;;2.40;99.90;;;;;;5093911;28;20036;-77
2021/12/31 07:45:30;;;;;;;0.45;0.45;;;2.30;99.90;;;;;;5095525;28;20039;-76
2021/12/31 07:47:56;;;;;;;0.63;0.60;;;2.30;99.90;;;;;;5095046;28;20028;-76
2021/12/31 07:50:21;;;;;;;0.45;0.40;;;2.30;99.90;;;;;;5094633;28;20111;-76
2021/12/31 07:52:47;;;;;;;1.55;0.30;;;2.30;99.90;;;;;;5095306;28;20040;-76
2021/12/31 07:55:13;;;;;;;0.20;0.20;;;2.20;99.90;;;;;;5094089;28;20021;-77
2021/12/31 07:57:39;;;;;;;0.32;0.32;;;2.30;99.90;;;;;;5092019;28;20035;-76
2021/12/31 08:00:05;;;;;;;0.50;0.50;;;2.40;99.90;;;;;;5102628;28;20024;-76
2021/12/31 08:02:31;;;;;;;17.17;0.80;;;2.50;99.90;;;;;;5098216;28;20230;-76
2021/12/31 08:04:57;;;;;;;0.75;0.40;;;2.60;99.90;;;;;;5101228;28;20050;-75
2021/12/31 08:07:23;;;;;;;1.08;0.40;;;2.60;99.90;;;;;;5100527;28;20031;-76
2021/12/31 08:09:48;;;;;;;0.50;0.50;;;2.50;99.90;;;;;;5100097;28;20153;-75
2021/12/31 08:12:14;;;;;;;3.45;0.47;;;2.50;99.90;;;;;;5090308;28;20062;-75
2021/12/31 08:14:40;;;;;;;0.73;0.40;;;2.50;99.90;;;;;;5094706;28;20024;-76
2021/12/31 08:17:05;;;;;;;2.88;0.30;;;2.60;99.90;;;;;;5099713;28;20031;-76
2021/12/31 08:19:31;;;;;;;0.45;0.45;;;2.70;99.90;;;;;;5078841;28;20017;-76
2021/12/31 08:21:57;;;;;;;2.05;0.68;;;2.90;99.90;;;;;;5081221;28;20068;-76
2021/12/31 08:24:22;;;;;;;3.17;0.57;;;2.90;99.90;;;;;;5078775;28;20016;-75
2021/12/31 08:26:48;;;;;;;0.68;0.68;;;3.00;99.90;;;;;;5080740;28;20043;-77
2021/12/31 08:29:15;;;;;;;0.40;0.40;;;3.10;99.90;;;;;;5080487;28;20313;-75
2021/12/31 08:31:41;;;;;;;0.68;0.68;;;3.20;99.90;;;;;;5079071;28;20107;-75
2021/12/31 08:34:11;;;;;;;1.45;0.63;;;3.20;99.90;;;;;;5085838;28;20028;-76
2021/12/31 08:36:37;;;;;;;14.05;1.63;;;3.30;99.90;;;;;;5101810;28;20073;-75
2021/12/31 08:39:05;;;;;;;13.38;2.47;;;3.40;99.90;;;;;;5118447;28;20126;-75
2021/12/31 08:41:31;;;;;;;10.45;4.72;;;3.50;99.90;;;;;;5105061;28;20148;-74
2021/12/31 08:43:57;;;;;;;31.48;7.35;;;3.50;99.90;;;;;;5122749;28;20248;-76
2021/12/31 08:46:23;;;;;;;80.00;23.00;;;3.60;99.90;;;;;;5121899;28;20122;-77
2021/12/31 08:48:49;;;;;;;50.45;18.67;;;3.60;99.90;;;;;;5121255;28;20603;-76
2021/12/31 08:51:15;;;;;;;8.32;3.85;;;3.80;99.90;;;;;;5083578;28;20032;-75
2021/12/31 08:53:41;;;;;;;7.10;3.22;;;4.00;99.90;;;;;;5096209;28;20148;-77
2021/12/31 08:56:07;;;;;;;1.98;1.20;;;3.90;99.90;;;;;;5099914;28;20011;-77
2021/12/31 08:58:33;;;;;;;0.90;0.63;;;4.10;99.90;;;;;;5116532;28;20051;-76
2021/12/31 09:00:59;;;;;;;2.72;1.02;;;4.30;99.90;;;;;;5116405;28;20024;-76
2021/12/31 09:03:25;;;;;;;2.85;1.08;;;4.50;99.90;;;;;;5093666;28;20042;-78
2021/12/31 09:05:50;;;;;;;3.03;1.73;;;4.60;99.90;;;;;;5114924;28;20011;-77
2021/12/31 09:08:16;;;;;;;19.63;2.95;;;4.80;99.90;;;;;;5095644;28;20032;-76
2021/12/31 09:10:42;;;;;;;4.70;2.53;;;4.80;99.90;;;;;;5078471;28;20028;-79
2021/12/31 09:13:10;;;;;;;43.45;11.90;;;5.10;99.90;;;;;;5100344;28;20012;-77
2021/12/31 09:15:37;;;;;;;7.78;3.78;;;5.10;99.90;;;;;;5102855;28;20059;-75
2021/12/31 09:18:02;;;;;;;13.95;6.53;;;5.20;99.90;;;;;;5119284;28;20030;-76
2021/12/31 09:20:29;;;;;;;9.90;4.35;;;5.30;99.90;;;;;;5099756;28;20020;-80
2021/12/31 09:22:54;;;;;;;5.60;3.50;;;5.40;99.90;;;;;;5118065;28;20032;-76
2021/12/31 09:25:20;;;;;;;7.28;3.50;;;5.70;99.90;;;;;;5097442;28;20027;-77
2021/12/31 09:27:46;;;;;;;9.23;3.45;;;5.90;99.90;;;;;;5096809;28;20031;-77
2021/12/31 09:30:13;;;;;;;9.23;4.20;;;6.00;99.90;;;;;;5097685;28;20069;-78
2021/12/31 09:32:39;;;;;;;6.50;2.97;;;6.10;99.90;;;;;;5115799;28;20058;-78
2021/12/31 09:35:06;;;;;;;10.35;4.68;;;6.30;99.90;;;;;;5098852;28;20011;-77
2021/12/31 09:37:32;;;;;;;6.53;3.35;;;6.50;99.90;;;;;;5097942;28;20333;-77
2021/12/31 09:39:58;;;;;;;5.47;2.92;;;6.50;99.90;;;;;;5096392;28;20038;-83
2021/12/31 09:42:24;;;;;;;4.28;2.78;;;6.60;99.90;;;;;;5090144;28;20185;-77
2021/12/31 09:44:50;;;;;;;9.65;3.47;;;6.80;99.90;;;;;;5084976;28;20114;-77
2021/12/31 09:47:18;;;;;;;13.43;3.38;;;6.90;99.90;;;;;;5085390;28;20051;-77
2021/12/31 09:49:46;;;;;;;9.52;2.88;;;6.90;99.90;;;;;;5086541;28;20035;-81
2021/12/31 09:52:14;;;;;;;8.20;3.43;;;6.90;99.90;;;;;;5104723;28;20535;-77
2021/12/31 09:54:41;;;;;;;10.38;3.15;;;7.00;99.90;;;;;;5085806;28;20278;-79
2021/12/31 09:57:15;;;;;;;5.95;2.47;;;7.00;99.90;;;;;;5106640;28;20027;-78
2021/12/31 09:59:41;;;;;;;10.23;3.60;;;7.10;99.90;;;;;;5093458;28;20031;-75
2021/12/31 10:02:09;;;;;;;3.88;3.03;;;7.20;99.90;;;;;;5086244;28;20134;-75
2021/12/31 10:04:55;;;;;;;9.63;2.63;;;7.40;99.90;;;;;;5085904;28;20564;-74
2021/12/31 10:07:23;;;;;;;6.65;2.83;;;7.60;99.90;;;;;;5090285;28;20790;-75
2021/12/31 10:10:15;;;;;;;2.95;2.05;;;7.60;99.90;;;;;;5083679;28;20016;-75
2021/12/31 10:12:50;;;;;;;4.07;1.75;;;7.70;99.90;;;;;;5083985;28;20020;-77
2021/12/31 10:15:22;;;;;;;1.52;1.42;;;7.90;99.90;;;;;;5083931;28;20114;-74
2021/12/31 10:17:48;;;;;;;3.08;1.98;;;8.10;99.90;;;;;;5071138;28;20229;-75
2021/12/31 10:20:15;;;;;;;2.25;1.30;;;8.30;99.90;;;;;;5103583;28;20274;-78
2021/12/31 10:22:41;;;;;;;1.58;1.48;;;8.40;99.90;;;;;;5086297;28;20505;-78
2021/12/31 10:25:18;;;;;;;2.20;1.90;;;8.50;99.90;;;;;;5087395;28;20020;-76
2021/12/31 10:27:43;;;;;;;4.47;1.65;;;8.60;99.90;;;;;;5087580;28;20089;-76
2021/12/31 10:30:09;;;;;;;2.60;1.45;;;8.60;99.90;;;;;;5086135;28;20411;-76
2021/12/31 10:32:40;;;;;;;1.25;1.15;;;8.50;99.90;;;;;;5085568;28;20027;-77
2021/12/31 10:35:21;;;;;;;1.80;1.40;;;8.50;99.90;;;;;;5103036;28;20015;-77
2021/12/31 10:38:01;;;;;;;1.27;1.17;;;8.50;99.90;;;;;;5085067;28;20045;-79
2021/12/31 10:40:31;;;;;;;2.35;1.92;;;8.60;99.90;;;;;;5085793;28;20361;-76
2021/12/31 10:43:06;;;;;;;1.95;1.85;;;8.70;99.90;;;;;;5085092;28;20119;-77
2021/12/31 10:45:32;;;;;;;1.85;1.60;;;8.70;99.90;;;;;;5103427;28;20035;-78
2021/12/31 10:48:06;;;;;;;2.17;1.70;;;8.70;99.90;;;;;;5103573;28;20047;-83
2021/12/31 10:50:32;;;;;;;2.75;1.75;;;8.80;99.90;;;;;;5103773;28;20046;-77
2021/12/31 10:53:02;;;;;;;1.85;1.50;;;8.80;99.90;;;;;;5101182;28;20446;-76
2021/12/31 10:55:30;;;;;;;3.45;1.58;;;9.30;99.90;;;;;;5102282;28;20047;-79
2021/12/31 10:58:01;;;;;;;2.30;1.80;;;9.00;99.90;;;;;;5080424;28;20020;-77
2021/12/31 11:00:31;;;;;;;3.58;2.03;;;9.10;99.90;;;;;;5064391;28;20400;-76
2021/12/31 11:02:57;;;;;;;2.53;1.92;;;9.20;99.90;;;;;;5082296;28;20378;-77
2021/12/31 11:05:23;;;;;;;3.55;1.95;;;9.30;99.90;;;;;;5083024;28;20020;-76
2021/12/31 11:07:51;;;;;;;3.63;2.33;;;9.30;99.90;;;;;;5081672;28;20019;-77
2021/12/31 11:10:18;;;;;;;4.03;2.13;;;9.40;99.90;;;;;;5103089;28;20399;-76
2021/12/31 11:12:48;;;;;;;4.05;2.83;;;9.30;99.90;;;;;;5103503;28;20019;-78
2021/12/31 11:15:14;;;;;;;;;;;9.40;99.90;;;;;;5104349;28;20118;-78
2021/12/31 11:17:40;;;;;;;2.00;1.40;;;9.40;99.90;;;;;;5102850;28;19916;-77
2021/12/31 11:20:07;;;;;;;1.58;1.48;;;9.40;99.90;;;;;;5101485;28;20382;-75
2021/12/31 11:22:34;;;;;;;2.47;1.60;;;9.50;99.90;;;;;;5080888;28;20074;-77
2021/12/31 11:25:17;;;;;;;1.65;1.27;;;9.50;99.90;;;;;;5100617;28;20053;-76
2021/12/31 11:27:47;;;;;;;2.03;1.83;;;9.50;99.90;;;;;;5087725;28;20315;-78
2021/12/31 11:30:39;;;;;;;2.38;1.98;;;9.60;99.90;;;;;;5106140;28;20307;-75
2021/12/31 11:33:05;;;;;;;1.83;1.23;;;9.60;99.90;;;;;;5104194;28;20024;-76
2021/12/31 11:35:57;;;;;;;1.70;1.60;;;9.70;99.90;;;;;;5104061;28;20095;-76
2021/12/31 11:38:26;;;;;;;1.33;1.17;;;9.80;99.90;;;;;;5086339;28;20111;-75
2021/12/31 11:41:08;;;;;;;3.60;1.33;;;9.80;99.90;;;;;;5101902;28;20448;-76
2021/12/31 11:43:36;;;;;;;2.28;1.95;;;9.80;99.90;;;;;;5103272;28;20173;-81
2021/12/31 11:46:12;;;;;;;6.43;2.03;;;9.90;99.90;;;;;;5075156;28;20236;-77
2021/12/31 11:48:47;;;;;;;3.00;1.85;;;10.10;99.90;;;;;;5074019;28;20080;-76
2021/12/31 11:51:28;;;;;;;1.48;1.17;;;10.20;99.90;;;;;;5074913;28;20020;-77
2021/12/31 11:53:59;;;;;;;1.85;1.50;;;10.30;99.90;;;;;;5093774;28;20104;-78
2021/12/31 11:56:36;;;;;;;1.35;1.25;;;10.60;99.90;;;;;;5098151;28;20256;-75
2021/12/31 11:59:11;;;;;;;1.25;1.15;;;10.70;99.90;;;;;;5078355;28;20045;-76
2021/12/31 12:01:37;;;;;;;1.13;1.00;;;8.10;99.90;;;;;;5090085;28;20022;-77
2021/12/31 12:04:28;;;;;;;1.60;1.50;;;10.80;99.90;;;;;;5092520;28;20028;-78
2021/12/31 12:07:01;;;;;;;2.15;1.67;;;11.70;99.90;;;;;;5089727;28;20072;-76
2021/12/31 12:09:47;;;;;;;3.33;1.20;;;10.90;99.90;;;;;;5096883;28;20429;-76
2021/12/31 12:12:26;;;;;;;2.40;1.00;;;10.90;99.90;;;;;;5050324;28;20043;-79
2021/12/31 12:14:55;;;;;;;;;;;10.80;99.90;;;;;;5099494;28;20020;-79
2021/12/31 12:17:30;;;;;;;3.40;1.45;;;10.90;99.90;;;;;;5101344;28;19915;-77
2021/12/31 12:20:02;;;;;;;0.70;0.70;;;11.00;99.90;;;;;;5099507;28;20370;-79
2021/12/31 12:22:37;;;;;;;1.48;1.00;;;11.00;99.90;;;;;;5102122;28;20024;-84
2021/12/31 12:25:09;;;;;;;0.77;0.77;;;11.20;99.90;;;;;;5101195;28;20308;-76
2021/12/31 12:27:37;;;;;;;1.17;1.08;;;11.10;99.90;;;;;;5081622;28;20016;-77
2021/12/31 12:30:08;;;;;;;2.92;1.20;;;11.20;99.90;;;;;;5084453;28;20203;-77
2021/12/31 12:32:53;;;;;;;1.17;0.90;;;11.20;99.90;;;;;;5085791;28;20299;-76
2021/12/31 12:35:21;;;;;;;0.70;0.70;;;11.30;99.90;;;;;;5084634;28;20039;-76
2021/12/31 12:38:09;;;;;;;2.35;0.60;;;11.50;99.90;;;;;;5079871;28;20035;-76
2021/12/31 12:40:45;;;;;;;0.38;0.38;;;11.70;99.90;;;;;;5083849;28;20081;-78
2021/12/31 12:43:24;;;;;;;3.45;0.93;;;12.00;99.90;;;;;;5104413;28;20051;-76
2021/12/31 12:46:01;;;;;;;0.65;0.50;;;12.00;99.90;;;;;;5091393;28;20021;-77
2021/12/31 12:48:46;;;;;;;0.52;0.52;;;12.00;99.90;;;;;;5063506;28;20104;-76
2021/12/31 12:51:13;;;;;;;0.77;0.70;;;12.00;99.90;;;;;;5073142;28;20392;-77
2021/12/31 12:53:44;;;;;;;0.50;0.50;;;12.10;99.90;;;;;;5088751;28;20781;-79
2021/12/31 12:56:11;;;;;;;0.75;0.60;;;12.20;99.90;;;;;;5078219;28;20565;-75
2021/12/31 12:58:46;;;;;;;0.63;0.40;;;12.30;99.90;;;;;;5070824;28;20035;-76
2021/12/31 13:01:11;;;;;;;0.47;0.47;;;12.40;99.90;;;;;;5083182;28;20189;-76
2021/12/31 13:03:50;;;;;;;0.43;0.30;;;14.20;99.90;;;;;;5099170;28;20038;-76
2021/12/31 13:06:18;;;;;;;0.40;0.30;;;12.50;99.90;;;;;;5083399;28;20081;-75